createdAt,value
2018-03-06T00:02:27.433Z,92610.14
2018-03-06T00:05:31.482Z,92611.47
2018-03-06T00:08:34.770Z,92613.89
2018-03-06T00:11:38.059Z,92611.58
2018-03-06T00:14:41.340Z,92611.36
2018-03-06T00:17:45.583Z,92610.70
2018-03-06T00:20:48.870Z,92611.30
2018-03-06T00:23:52.556Z,92606.17
2018-03-06T00:26:57.213Z,92607.60
2018-03-06T00:30:00.509Z,92602.85
2018-03-06T00:33:04.566Z,92606.61
2018-03-06T00:36:07.846Z,92603.56
2018-03-06T00:39:11.125Z,92603.67
2018-03-06T00:42:14.410Z,92599.91
2018-03-06T00:45:18.495Z,92601.63
2018-03-06T00:48:21.770Z,92596.41
2018-03-06T00:51:25.059Z,92593.94
2018-03-06T00:54:28.333Z,92593.00
2018-03-06T00:57:31.636Z,92588.73
2018-03-06T01:00:34.973Z,92588.48
2018-03-06T01:03:38.252Z,92587.44
2018-03-06T01:06:41.549Z,92577.34
2018-03-06T01:09:44.830Z,92582.68
2018-03-06T01:12:48.123Z,92575.42
2018-03-06T01:15:51.422Z,92582.17
2018-03-06T01:18:55.461Z,92583.98
2018-03-06T01:21:59.245Z,92580.84
2018-03-06T01:25:03.284Z,92577.97
2018-03-06T01:28:06.592Z,92575.20
2018-03-06T01:31:09.875Z,92579.02
2018-03-06T01:34:13.154Z,92576.84
2018-03-06T01:37:17.305Z,92573.65
2018-03-06T01:40:20.628Z,92573.37
2018-03-06T01:43:23.878Z,92572.83
2018-03-06T01:46:27.165Z,92579.47
2018-03-06T01:49:31.227Z,92574.11
2018-03-06T01:52:34.515Z,92571.45
2018-03-06T01:55:37.810Z,92565.80
2018-03-06T01:58:41.105Z,92568.60
2018-03-06T02:01:44.434Z,92559.44
2018-03-06T02:04:47.719Z,92568.85
2018-03-06T02:07:51.002Z,92562.91
2018-03-06T02:10:54.469Z,92559.92
2018-03-06T02:13:58.621Z,92562.54
2018-03-06T02:17:01.909Z,92550.93
2018-03-06T02:20:05.631Z,92545.95
2018-03-06T02:23:08.923Z,92557.65
2018-03-06T02:26:12.206Z,92553.88
2018-03-06T02:29:15.481Z,92554.02
2018-03-06T02:32:19.536Z,92552.27
2018-03-06T02:35:22.836Z,92553.64
2018-03-06T02:38:26.111Z,92549.26
2018-03-06T02:41:30.237Z,92550.86
2018-03-06T02:44:33.505Z,92540.83
2018-03-06T02:47:37.580Z,92538.23
2018-03-06T02:50:40.865Z,92534.41
2018-03-06T02:53:44.157Z,92537.15
2018-03-06T02:56:47.449Z,92543.45
2018-03-06T02:59:50.736Z,92535.05
2018-03-06T03:02:54.045Z,92539.13
2018-03-06T03:05:57.333Z,92531.62
2018-03-06T03:09:00.631Z,92527.06
2018-03-06T03:12:03.909Z,92526.30
2018-03-06T03:15:07.958Z,92528.12
2018-03-06T03:18:11.240Z,92527.14
2018-03-06T03:21:14.531Z,92522.02
2018-03-06T03:24:17.847Z,92520.16
2018-03-06T03:27:21.136Z,92515.20
2018-03-06T03:30:24.455Z,92517.09
2018-03-06T03:33:27.738Z,92512.48
2018-03-06T03:36:31.018Z,92508.16
2018-03-06T03:39:35.049Z,92523.22
2018-03-06T03:46:13.861Z,92513.34
2018-03-06T03:49:17.987Z,92514.52
2018-03-06T03:52:21.259Z,92506.56
2018-03-06T03:55:25.297Z,92512.48
2018-03-06T03:58:28.577Z,92509.78
2018-03-06T04:01:32.608Z,92502.91
2018-03-06T04:04:35.921Z,92503.03
2018-03-06T04:07:39.205Z,92508.25
2018-03-06T04:10:42.504Z,92505.69
2018-03-06T04:13:45.785Z,92505.77
2018-03-06T04:16:49.934Z,92500.23
2018-03-06T04:19:53.235Z,92496.82
2018-03-06T04:22:56.515Z,92499.14
2018-03-06T04:25:59.782Z,92504.20
2018-03-06T04:29:03.129Z,92498.06
2018-03-06T04:32:06.506Z,92497.68
2018-03-06T04:35:09.957Z,92497.20
2018-03-06T04:38:13.235Z,92496.28
2018-03-06T04:41:16.502Z,92497.59
2018-03-06T04:44:19.954Z,92498.61
2018-03-06T04:47:23.302Z,92497.52
2018-03-06T04:50:26.616Z,92497.81
2018-03-06T04:53:29.908Z,92487.78
2018-03-06T04:56:33.945Z,92484.70
2018-03-06T04:59:37.382Z,92484.53
2018-03-06T05:02:41.656Z,92486.86
2018-03-06T05:05:45.115Z,92483.87
2018-03-06T05:08:49.163Z,92487.69
2018-03-06T05:11:52.500Z,92481.31
2018-03-06T05:14:55.879Z,92481.48
2018-03-06T05:17:59.173Z,92484.76
2018-03-06T05:21:18.271Z,92483.56
2018-03-06T05:24:22.432Z,92486.64
2018-03-06T05:27:25.736Z,92487.12
2018-03-06T05:30:33.894Z,92489.09
2018-03-06T05:33:37.193Z,92492.86
2018-03-06T05:36:40.482Z,92495.97
2018-03-06T05:39:43.891Z,92491.21
2018-03-06T05:42:47.270Z,92478.67
2018-03-06T05:45:50.585Z,92486.79
2018-03-06T05:48:53.907Z,92483.89
2018-03-06T05:51:57.208Z,92482.97
2018-03-06T05:55:01.291Z,92481.42
2018-03-06T05:58:04.679Z,92484.49
2018-03-06T06:01:07.995Z,92486.73
2018-03-06T06:04:11.373Z,92487.30
2018-03-06T06:07:14.652Z,92489.84
2018-03-06T06:10:18.728Z,92496.89
2018-03-06T06:13:21.996Z,92497.75
2018-03-06T06:16:25.416Z,92499.50
2018-03-06T06:19:29.510Z,92503.34
2018-03-06T06:22:32.795Z,92508.63
2018-03-06T06:25:36.930Z,92507.33
2018-03-06T06:28:40.189Z,92502.92
2018-03-06T06:31:43.476Z,92507.39
2018-03-06T06:34:46.758Z,92503.86
2018-03-06T06:37:50.053Z,92508.11
2018-03-06T06:40:53.328Z,92499.59
2018-03-06T06:43:56.587Z,92497.36
2018-03-06T06:47:00.683Z,92498.46
2018-03-06T06:50:04.542Z,92501.23
2018-03-06T06:53:08.556Z,92497.80
2018-03-06T06:56:11.938Z,92500.73
2018-03-06T06:59:15.250Z,92499.77
2018-03-06T07:02:18.517Z,92501.78
2018-03-06T07:05:22.558Z,92501.44
2018-03-06T07:08:25.821Z,92501.66
2018-03-06T07:11:29.868Z,92502.33
2018-03-06T07:14:33.136Z,92503.19
2018-03-06T07:17:36.413Z,92499.43
2018-03-06T07:20:39.738Z,92505.57
2018-03-06T07:23:43.838Z,92501.66
2018-03-06T07:26:48.320Z,92505.95
2018-03-06T07:29:51.593Z,92512.45
2018-03-06T07:32:55.635Z,92516.15
2018-03-06T07:35:58.903Z,92520.72
2018-03-06T07:39:03.696Z,92519.23
2018-03-06T07:42:06.979Z,92518.14
2018-03-06T07:45:10.348Z,92514.56
2018-03-06T07:48:13.617Z,92517.38
2018-03-06T07:51:18.181Z,92530.92
2018-03-06T07:54:21.450Z,92527.69
2018-03-06T07:57:25.913Z,92531.39
2018-03-06T08:00:29.173Z,92529.70
2018-03-06T08:03:33.294Z,92538.83
2018-03-06T08:06:37.353Z,92533.77
2018-03-06T08:09:40.708Z,92528.50
2018-03-06T08:12:44.746Z,92525.90
2018-03-06T08:15:48.726Z,92530.69
2018-03-06T08:18:52.761Z,92523.66
2018-03-06T08:21:56.788Z,92528.62
2018-03-06T08:25:00.070Z,92527.88
2018-03-06T08:28:03.766Z,92525.48
2018-03-06T08:31:07.228Z,92524.01
2018-03-06T08:34:10.993Z,92523.87
2018-03-06T08:37:14.264Z,92522.76
2018-03-06T08:40:17.537Z,92517.20
2018-03-06T08:43:20.833Z,92517.45
2018-03-06T08:46:24.092Z,92522.62
2018-03-06T08:49:27.669Z,92511.89
2018-03-06T08:52:31.799Z,92516.75
2018-03-06T08:55:36.229Z,92509.91
2018-03-06T08:58:39.519Z,92511.00
2018-03-06T09:01:42.812Z,92503.26
2018-03-06T09:04:46.852Z,92499.39
2018-03-06T09:07:50.148Z,92507.31
2018-03-06T09:10:53.416Z,92501.89
2018-03-06T09:13:56.711Z,92503.73
2018-03-06T09:17:00.750Z,92500.99
2018-03-06T09:20:04.196Z,92500.33
2018-03-06T09:23:07.471Z,92500.34
2018-03-06T09:26:10.741Z,92499.36
2018-03-06T09:29:14.019Z,92498.81
2018-03-06T09:32:18.044Z,92496.31
2018-03-06T09:35:21.384Z,92492.39
2018-03-06T09:38:24.654Z,92494.91
2018-03-06T09:41:27.931Z,92491.80
2018-03-06T09:44:31.977Z,92493.75
2018-03-06T09:47:35.262Z,92500.30
2018-03-06T09:50:39.306Z,92496.69
2018-03-06T09:53:42.576Z,92500.55
2018-03-06T09:56:45.843Z,92504.05
2018-03-06T09:59:51.374Z,92508.48
2018-03-06T10:02:55.439Z,92503.50
2018-03-06T10:05:58.725Z,92504.87
2018-03-06T10:09:01.994Z,92505.61
2018-03-06T10:12:05.262Z,92494.52
2018-03-06T10:15:08.556Z,92498.96
2018-03-06T10:18:11.845Z,92492.64
2018-03-06T10:21:15.113Z,92499.24
2018-03-06T10:24:18.388Z,92498.64
2018-03-06T10:27:22.465Z,92500.64
2018-03-06T10:30:25.744Z,92507.63
2018-03-06T10:33:29.020Z,92504.42
2018-03-06T10:36:32.408Z,92502.18
2018-03-06T10:39:35.644Z,92503.13
2018-03-06T10:42:38.918Z,92504.98
2018-03-06T10:45:42.183Z,92507.48
2018-03-06T10:48:46.322Z,92505.94
2018-03-06T10:51:49.625Z,92505.52
2018-03-06T10:54:52.907Z,92504.80
2018-03-06T10:57:56.946Z,92502.79
2018-03-06T11:01:00.231Z,92504.01
2018-03-06T11:04:03.544Z,92501.87
2018-03-06T11:07:06.809Z,92502.02
2018-03-06T11:10:10.948Z,92498.12
2018-03-06T11:13:14.229Z,92500.50
2018-03-06T11:16:18.269Z,92500.19
2018-03-06T11:19:22.484Z,92494.50
2018-03-06T11:22:25.762Z,92495.87
2018-03-06T11:25:29.885Z,92498.25
2018-03-06T11:28:33.177Z,92498.92
2018-03-06T11:31:37.208Z,92484.28
2018-03-06T11:34:40.490Z,92491.53
2018-03-06T11:37:43.758Z,92495.20
2018-03-06T11:40:47.030Z,92493.92
2018-03-06T11:43:50.317Z,92499.45
2018-03-06T11:46:53.597Z,92494.16
2018-03-06T11:49:56.908Z,92495.08
2018-03-06T11:53:00.184Z,92494.67
2018-03-06T11:56:03.529Z,92485.59
2018-03-06T11:59:06.918Z,92490.02
2018-03-06T12:02:10.177Z,92495.06
2018-03-06T12:05:14.221Z,92493.70
2018-03-06T12:08:17.708Z,92493.01
2018-03-06T12:11:21.050Z,92493.24
2018-03-06T12:14:24.314Z,92494.41
2018-03-06T12:17:27.578Z,92490.73
2018-03-06T12:20:31.625Z,92492.97
2018-03-06T12:23:34.902Z,92486.73
2018-03-06T12:26:38.383Z,92482.59
2018-03-06T12:29:42.437Z,92482.55
2018-03-06T12:32:45.693Z,92485.05
2018-03-06T12:35:49.731Z,92481.36
2018-03-06T12:38:53.013Z,92479.73
2018-03-06T12:41:57.150Z,92478.71
2018-03-06T12:45:00.446Z,92483.63
2018-03-06T12:48:03.736Z,92483.53
2018-03-06T12:51:07.009Z,92484.28
2018-03-06T12:54:10.272Z,92480.58
2018-03-06T12:57:13.553Z,92485.73
2018-03-06T13:00:17.107Z,92481.34
2018-03-06T13:03:20.369Z,92483.31
2018-03-06T13:06:23.636Z,92487.06
2018-03-06T13:09:27.283Z,92478.81
2018-03-06T13:12:30.572Z,92481.84
2018-03-06T13:15:33.853Z,92479.73
2018-03-06T13:18:37.118Z,92481.47
2018-03-06T13:21:41.158Z,92477.47
2018-03-06T13:24:44.482Z,92482.33
2018-03-06T13:27:47.904Z,92485.02
2018-03-06T13:30:51.188Z,92485.13
2018-03-06T13:33:54.535Z,92490.19
2018-03-06T13:36:58.570Z,92494.86
2018-03-06T13:40:01.878Z,92495.23
2018-03-06T13:43:05.233Z,92490.53
2018-03-06T13:46:09.309Z,92495.80
2018-03-06T13:49:12.569Z,92489.75
2018-03-06T13:52:15.918Z,92490.47
2018-03-06T13:55:19.138Z,92492.75
2018-03-06T13:58:22.415Z,92495.70
2018-03-06T14:01:26.924Z,92496.11
2018-03-06T14:04:30.192Z,92497.51
2018-03-06T14:07:33.467Z,92497.12
2018-03-06T14:10:37.525Z,92500.19
2018-03-06T14:13:40.806Z,92502.55
2018-03-06T14:16:44.074Z,92498.95
2018-03-06T14:19:48.204Z,92499.66
2018-03-06T14:22:51.617Z,92503.87
2018-03-06T14:25:54.880Z,92494.59
2018-03-06T14:28:58.946Z,92492.12
2018-03-06T14:32:02.253Z,92500.75
2018-03-06T14:35:05.524Z,92501.16
2018-03-06T14:38:08.842Z,92500.56
2018-03-06T14:41:12.129Z,92500.23
2018-03-06T14:44:15.522Z,92499.81
2018-03-06T14:47:18.801Z,92501.55
2018-03-06T14:50:22.178Z,92500.58
2018-03-06T14:53:25.510Z,92496.77
2018-03-06T14:56:28.796Z,92503.23
2018-03-06T14:59:32.101Z,92495.74
2018-03-06T15:02:35.401Z,92496.08
2018-03-06T15:05:38.703Z,92497.50
2018-03-06T15:08:41.972Z,92495.25
2018-03-06T15:11:46.320Z,92493.70
2018-03-06T15:14:49.613Z,92499.75
2018-03-06T15:17:52.900Z,92497.67
2018-03-06T15:20:56.950Z,92503.44
2018-03-06T15:24:00.234Z,92498.19
2018-03-06T15:27:03.616Z,92496.00
2018-03-06T15:30:07.696Z,92501.02
2018-03-06T15:33:10.973Z,92503.05
2018-03-06T15:36:14.232Z,92505.05
2018-03-06T15:39:17.507Z,92507.47
2018-03-06T15:42:21.638Z,92508.23
2018-03-06T15:45:26.086Z,92507.97
2018-03-06T15:48:30.960Z,92509.28
2018-03-06T15:51:34.237Z,92509.17
2018-03-06T15:54:37.518Z,92512.89
2018-03-06T15:57:40.889Z,92507.84
2018-03-06T16:00:44.954Z,92513.14
2018-03-06T16:03:48.225Z,92510.69
2018-03-06T16:06:51.494Z,92513.31
2018-03-06T16:09:55.524Z,92510.00
2018-03-06T16:12:58.822Z,92524.70
2018-03-06T16:16:02.085Z,92526.49
2018-03-06T16:19:05.355Z,92532.05
2018-03-06T16:22:08.664Z,92533.98
2018-03-06T16:25:11.932Z,92532.34
2018-03-06T16:28:15.201Z,92545.20
2018-03-06T16:31:18.461Z,92550.70
2018-03-06T16:34:21.769Z,92554.09
2018-03-06T16:37:25.028Z,92554.17
2018-03-06T16:40:28.292Z,92568.84
2018-03-06T16:43:32.064Z,92561.89
2018-03-06T16:46:35.330Z,92567.91
2018-03-06T16:49:39.103Z,92569.40
2018-03-06T16:52:42.416Z,92572.03
2018-03-06T16:55:45.692Z,92577.61
2018-03-06T16:58:49.100Z,92581.46
2018-03-06T17:01:52.409Z,92584.95
2018-03-06T17:04:55.693Z,92575.97
2018-03-06T17:07:59.066Z,92589.27
2018-03-06T17:11:02.977Z,92589.19
2018-03-06T17:14:07.035Z,92593.04
2018-03-06T17:17:10.376Z,92594.48
2018-03-06T17:20:13.871Z,92600.94
2018-03-06T17:23:17.230Z,92596.52
2018-03-06T17:26:20.529Z,92605.34
2018-03-06T17:29:23.806Z,92608.14
2018-03-06T17:32:27.838Z,92615.89
2018-03-06T17:35:31.225Z,92606.94
2018-03-06T17:38:35.304Z,92612.84
2018-03-06T17:41:38.595Z,92611.59
2018-03-06T17:44:41.985Z,92618.88
2018-03-06T17:47:45.286Z,92615.45
2018-03-06T17:50:48.578Z,92612.96
2018-03-06T17:53:51.933Z,92619.39
2018-03-06T17:56:55.202Z,92622.64
2018-03-06T17:59:58.488Z,92626.95
2018-03-06T18:03:01.754Z,92626.95
2018-03-06T18:06:05.046Z,92632.48
2018-03-06T18:09:08.328Z,92636.65
2018-03-06T18:12:11.597Z,92640.20
2018-03-06T18:15:15.637Z,92647.48
2018-03-06T18:18:18.932Z,92643.23
2018-03-06T18:21:22.234Z,92654.05
2018-03-06T18:24:25.513Z,92653.90
2018-03-06T18:27:29.589Z,92660.63
2018-03-06T18:30:32.884Z,92661.55
2018-03-06T18:33:36.285Z,92667.70
2018-03-06T18:36:39.654Z,92664.70
2018-03-06T18:39:42.934Z,92669.61
2018-03-06T18:42:46.966Z,92675.13
2018-03-06T18:45:50.339Z,92679.34
2018-03-06T18:48:54.403Z,92686.40
2018-03-06T18:51:57.668Z,92682.94
2018-03-06T18:55:01.715Z,92685.08
2018-03-06T18:58:05.073Z,92689.50
2018-03-06T19:05:10.213Z,92692.66
2018-03-06T19:08:13.565Z,92696.92
2018-03-06T19:11:17.895Z,92700.86
2018-03-06T19:14:21.183Z,92701.09
2018-03-06T19:17:25.598Z,92705.58
2018-03-06T19:20:31.200Z,92700.77
2018-03-06T19:23:34.485Z,92704.11
2018-03-06T19:26:37.794Z,92702.07
2018-03-06T19:29:41.058Z,92706.17
2018-03-06T19:32:44.381Z,92708.83
2018-03-06T19:35:47.793Z,92710.81
2018-03-06T19:38:51.243Z,92716.41
2018-03-06T19:41:55.277Z,92724.53
2018-03-06T19:44:58.538Z,92726.53
2018-03-06T19:48:01.829Z,92731.80
2018-03-06T19:51:05.142Z,92722.74
2018-03-06T19:54:09.709Z,92728.63
2018-03-06T19:57:13.001Z,92728.34
2018-03-06T20:00:16.265Z,92731.80
2018-03-06T20:03:19.531Z,92730.20
2018-03-06T20:06:22.801Z,92735.28
2018-03-06T20:09:26.092Z,92739.50
2018-03-06T20:12:29.376Z,92738.56
2018-03-06T20:15:32.655Z,92744.41
2018-03-06T20:18:36.894Z,92739.72
2018-03-06T20:21:40.169Z,92743.00
2018-03-06T20:24:49.448Z,92736.64
2018-03-06T20:27:52.731Z,92745.66
2018-03-06T20:31:01.519Z,92749.87
2018-03-06T20:37:25.324Z,92751.61
2018-03-06T20:40:32.975Z,92753.96
2018-03-06T20:43:38.098Z,92745.97
2018-03-06T20:46:48.537Z,92747.69
2018-03-06T20:49:55.753Z,92752.91
2018-03-06T20:53:10.552Z,92752.36
2018-03-06T20:56:14.462Z,92756.42
2018-03-06T20:59:18.074Z,92759.31
2018-03-06T21:02:21.349Z,92751.98
2018-03-06T21:05:24.708Z,92757.45
2018-03-06T21:08:29.174Z,92758.60
2018-03-06T21:11:32.464Z,92758.82
2018-03-06T21:14:35.738Z,92751.82
2018-03-06T21:17:39.778Z,92758.34
2018-03-06T21:20:43.050Z,92759.27
2018-03-06T21:23:47.089Z,92756.38
2018-03-06T21:26:50.370Z,92758.67
2018-03-06T21:29:54.421Z,92761.38
2018-03-06T21:32:57.712Z,92755.90
2018-03-06T21:36:00.991Z,92759.14
2018-03-06T21:39:04.546Z,92763.85
2018-03-06T21:42:07.853Z,92762.75
2018-03-06T21:45:11.114Z,92768.77
2018-03-06T21:48:14.418Z,92769.53
2018-03-06T21:51:17.676Z,92770.73
2018-03-06T21:54:20.976Z,92775.20
2018-03-06T21:57:24.303Z,92774.66
2018-03-06T22:00:28.388Z,92766.41
2018-03-06T22:03:31.669Z,92769.23
2018-03-06T22:06:35.698Z,92766.00
2018-03-06T22:09:39.743Z,92773.50
2018-03-06T22:12:43.746Z,92769.54
2018-03-06T22:15:47.165Z,92773.59
2018-03-06T22:18:50.438Z,92776.91
2018-03-06T22:21:53.749Z,92773.20
2018-03-06T22:24:57.019Z,92776.81
2018-03-06T22:28:00.285Z,92770.15
2018-03-06T22:31:03.618Z,92773.88
2018-03-06T22:34:07.013Z,92774.64
2018-03-06T22:37:11.042Z,92776.91
2018-03-06T22:40:15.261Z,92786.30
2018-03-06T22:43:20.875Z,92783.85
2018-03-06T22:46:25.190Z,92781.12
2018-03-06T22:49:28.718Z,92791.89
2018-03-06T22:52:32.756Z,92797.48
2018-03-06T22:55:36.027Z,92792.95
2018-03-06T22:58:40.188Z,92790.03
2018-03-06T23:01:44.700Z,92785.63
2018-03-06T23:04:47.996Z,92785.41
2018-03-06T23:07:51.281Z,92791.81
2018-03-06T23:10:54.581Z,92790.87
2018-03-06T23:13:58.618Z,92786.27
2018-03-06T23:17:01.907Z,92788.95
2018-03-06T23:20:05.208Z,92793.60
2018-03-06T23:23:09.360Z,92796.83
2018-03-06T23:26:12.655Z,92793.00
2018-03-06T23:29:15.920Z,92797.28
2018-03-06T23:32:19.197Z,92804.48
2018-03-06T23:35:23.311Z,92807.50
2018-03-06T23:38:27.350Z,92808.38
2018-03-06T23:41:30.624Z,92805.59
2018-03-06T23:44:33.894Z,92812.87
2018-03-06T23:47:37.174Z,92814.95
2018-03-06T23:50:40.533Z,92815.00
2018-03-06T23:53:43.811Z,92811.68
2018-03-06T23:56:47.915Z,92813.37
2018-03-06T23:59:51.229Z,92814.67
